createdAt,value
2022-09-12T00:01:31.532Z,18.11
2022-09-12T00:04:02.428Z,18.06
2022-09-12T00:06:33.658Z,18.03
2022-09-12T00:09:05.176Z,17.99
2022-09-12T00:11:37.755Z,17.96
2022-09-12T00:14:07.876Z,17.93
2022-09-12T00:16:37.760Z,17.90
2022-09-12T00:19:07.742Z,17.85
2022-09-12T00:21:37.997Z,17.78
2022-09-12T00:24:06.974Z,17.79
2022-09-12T00:26:36.605Z,17.77
2022-09-12T00:29:05.224Z,17.74
2022-09-12T00:31:33.561Z,17.72
2022-09-12T00:34:02.233Z,17.68
2022-09-12T00:36:31.493Z,17.64
2022-09-12T00:39:00.122Z,17.61
2022-09-12T00:41:32.230Z,17.57
2022-09-12T00:44:05.753Z,17.54
2022-09-12T00:46:41.672Z,17.49
2022-09-12T00:49:16.516Z,17.43
2022-09-12T00:51:49.576Z,17.41
2022-09-12T00:54:23.036Z,17.38
2022-09-12T00:56:55.295Z,17.35
2022-09-12T00:59:28.942Z,17.32
2022-09-12T01:01:58.065Z,17.29
2022-09-12T01:04:28.893Z,17.24
2022-09-12T01:06:59.530Z,17.23
2022-09-12T01:09:27.937Z,17.21
2022-09-12T01:11:57.150Z,17.18
2022-09-12T01:14:26.907Z,17.18
2022-09-12T01:16:55.198Z,17.15
2022-09-12T01:20:05.807Z,17.07
2022-09-12T01:23:01.680Z,17.01
2022-09-12T01:25:39.634Z,16.97
2022-09-12T01:28:30.279Z,16.93
2022-09-12T01:31:05.170Z,16.91
2022-09-12T01:33:52.842Z,16.88
2022-09-12T01:36:39.275Z,16.84
2022-09-12T01:39:21.002Z,16.83
2022-09-12T01:41:59.356Z,16.79
2022-09-12T01:44:37.710Z,16.76
2022-09-12T01:47:13.621Z,16.74
2022-09-12T01:49:53.200Z,16.70
2022-09-12T01:52:26.666Z,16.69
2022-09-12T01:55:01.607Z,16.67
2022-09-12T01:57:36.488Z,16.66
2022-09-12T02:00:09.173Z,16.64
2022-09-12T02:02:42.329Z,16.61
2022-09-12T02:05:16.275Z,16.58
2022-09-12T02:07:49.677Z,16.54
2022-09-12T02:10:21.605Z,16.51
2022-09-12T02:12:54.696Z,16.47
2022-09-12T02:15:33.716Z,16.46
2022-09-12T02:18:06.543Z,16.42
2022-09-12T02:20:48.617Z,16.38
2022-09-12T02:23:22.406Z,16.35
2022-09-12T02:25:54.118Z,16.32
2022-09-12T02:28:27.833Z,16.28
2022-09-12T02:31:05.129Z,16.24
2022-09-12T02:33:44.451Z,16.23
2022-09-12T02:36:24.533Z,16.19
2022-09-12T02:38:52.909Z,16.19
2022-09-12T02:41:22.845Z,16.17
2022-09-12T02:43:53.070Z,16.16
2022-09-12T02:46:26.211Z,16.13
2022-09-12T02:48:56.732Z,16.13
2022-09-12T02:51:25.306Z,16.10
2022-09-12T02:53:54.409Z,16.05
2022-09-12T02:56:29.042Z,16.03
2022-09-12T02:59:02.946Z,16.00
2022-09-12T03:01:51.252Z,15.97
2022-09-12T03:04:55.408Z,15.91
2022-09-12T03:07:42.742Z,15.88
2022-09-12T03:10:21.417Z,15.87
2022-09-12T03:13:00.897Z,15.86
2022-09-12T03:15:44.461Z,15.84
2022-09-12T03:18:36.078Z,15.81
2022-09-12T03:21:13.868Z,15.78
2022-09-12T03:23:54.340Z,15.73
2022-09-12T03:26:31.935Z,15.74
2022-09-12T03:29:03.300Z,15.69
2022-09-12T03:31:31.741Z,15.69
2022-09-12T03:34:01.239Z,15.67
2022-09-12T03:36:32.002Z,15.65
2022-09-12T03:39:00.253Z,15.64
2022-09-12T03:41:28.583Z,15.63
2022-09-12T03:43:56.992Z,15.59
2022-09-12T03:46:25.318Z,15.57
2022-09-12T03:48:53.550Z,15.56
2022-09-12T03:51:22.256Z,15.54
2022-09-12T03:53:51.857Z,15.54
2022-09-12T03:56:20.342Z,15.52
2022-09-12T03:58:48.827Z,15.50
2022-09-12T04:01:20.846Z,15.47
2022-09-12T04:03:52.846Z,15.45
2022-09-12T04:06:23.543Z,15.44
2022-09-12T04:08:55.323Z,15.41
2022-09-12T04:11:24.525Z,15.41
2022-09-12T04:13:52.867Z,15.38
2022-09-12T04:16:21.456Z,15.36
2022-09-12T04:18:49.709Z,15.36
2022-09-12T04:21:21.805Z,15.33
2022-09-12T04:23:50.345Z,15.33
2022-09-12T04:26:21.491Z,15.29
2022-09-12T04:28:54.693Z,15.27
2022-09-12T04:31:23.565Z,15.26
2022-09-12T04:33:56.270Z,15.25
2022-09-12T04:36:25.112Z,15.25
2022-09-12T04:38:53.766Z,15.24
2022-09-12T04:41:26.481Z,15.23
2022-09-12T04:43:58.225Z,15.24
2022-09-12T04:46:27.674Z,15.23
2022-09-12T04:48:57.192Z,15.24
2022-09-12T04:51:28.289Z,15.20
2022-09-12T04:53:58.854Z,15.23
2022-09-12T04:56:30.405Z,15.24
2022-09-12T04:59:00.497Z,15.22
2022-09-12T05:01:30.896Z,15.23
2022-09-12T05:04:00.340Z,15.24
2022-09-12T05:06:31.593Z,15.25
2022-09-12T05:09:01.829Z,15.25
2022-09-12T05:12:00.062Z,15.24
2022-09-12T05:14:21.926Z,15.22
2022-09-12T05:16:50.226Z,15.22
2022-09-12T05:19:18.733Z,15.21
2022-09-12T05:21:47.059Z,15.18
2022-09-12T05:24:15.311Z,15.16
2022-09-12T05:26:44.884Z,15.15
2022-09-12T05:29:13.253Z,15.13
2022-09-12T05:31:41.875Z,15.12
2022-09-12T05:34:11.315Z,15.10
2022-09-12T05:36:39.620Z,15.11
2022-09-12T05:39:08.585Z,15.11
2022-09-12T05:41:36.946Z,15.12
2022-09-12T05:44:11.802Z,15.12
2022-09-12T05:46:42.238Z,15.12
2022-09-12T05:49:13.634Z,15.13
2022-09-12T05:51:44.100Z,15.15
2022-09-12T05:54:15.514Z,15.17
2022-09-12T05:56:45.324Z,15.19
2022-09-12T05:59:17.461Z,15.21
2022-09-12T06:01:46.411Z,15.25
2022-09-12T06:04:15.070Z,15.27
2022-09-12T06:06:45.989Z,15.30
2022-09-12T06:09:16.153Z,15.34
2022-09-12T06:11:46.150Z,15.36
2022-09-12T06:14:18.154Z,15.40
2022-09-12T06:16:47.285Z,15.44
2022-09-12T06:19:18.492Z,15.46
2022-09-12T06:21:48.347Z,15.47
2022-09-12T06:24:17.625Z,15.52
2022-09-12T06:26:47.463Z,15.53
2022-09-12T06:29:17.459Z,15.54
2022-09-12T06:31:47.021Z,15.56
2022-09-12T06:34:17.037Z,15.58
2022-09-12T06:36:47.777Z,15.63
2022-09-12T06:39:18.084Z,15.66
2022-09-12T06:41:46.939Z,15.71
2022-09-12T06:44:19.304Z,15.75
2022-09-12T06:46:48.193Z,15.78
2022-09-12T06:49:17.574Z,15.84
2022-09-12T06:51:46.024Z,15.90
2022-09-12T06:54:16.887Z,15.94
2022-09-12T06:56:45.988Z,15.99
2022-09-12T06:59:15.932Z,16.05
2022-09-12T07:01:44.276Z,16.11
2022-09-12T07:04:12.716Z,16.15
2022-09-12T07:06:44.543Z,16.15
2022-09-12T07:09:16.362Z,16.23
2022-09-12T07:11:45.355Z,16.27
2022-09-12T07:14:16.877Z,16.31
2022-09-12T07:16:45.480Z,16.35
2022-09-12T07:19:13.772Z,16.42
2022-09-12T07:21:42.155Z,16.44
2022-09-12T07:24:11.649Z,16.51
2022-09-12T07:26:42.140Z,16.55
2022-09-12T07:29:36.902Z,16.61
2022-09-12T07:32:06.695Z,16.68
2022-09-12T07:34:35.913Z,16.74
2022-09-12T07:37:04.187Z,16.81
2022-09-12T07:39:32.541Z,16.87
2022-09-12T07:42:01.460Z,16.94
2022-09-12T07:44:31.147Z,17.02
2022-09-12T07:46:59.415Z,17.09
2022-09-12T07:49:27.656Z,17.17
2022-09-12T07:51:55.973Z,17.22
2022-09-12T07:54:24.628Z,17.30
2022-09-12T07:56:52.835Z,17.38
2022-09-12T07:59:35.659Z,17.46
2022-09-12T08:02:17.484Z,17.52
2022-09-12T08:04:47.733Z,17.63
2022-09-12T08:07:18.357Z,17.72
2022-09-12T08:09:47.313Z,17.85
2022-09-12T08:12:16.561Z,17.99
2022-09-12T08:14:44.937Z,18.18
2022-09-12T08:17:14.584Z,18.36
2022-09-12T08:19:42.879Z,18.57
2022-09-12T08:22:11.239Z,18.78
2022-09-12T08:24:40.478Z,18.99
2022-09-12T08:27:09.212Z,19.21
2022-09-12T08:29:37.410Z,19.46
2022-09-12T08:32:05.763Z,19.68
2022-09-12T08:34:35.358Z,19.94
2022-09-12T08:37:04.121Z,20.15
2022-09-12T08:39:32.695Z,20.41
2022-09-12T08:42:04.271Z,20.63
2022-09-12T08:45:02.137Z,20.89
2022-09-12T08:47:33.998Z,21.14
2022-09-12T08:50:16.469Z,21.39
2022-09-12T08:52:53.999Z,21.64
2022-09-12T08:55:32.758Z,21.87
2022-09-12T08:58:02.617Z,22.09
2022-09-12T09:00:44.626Z,22.31
2022-09-12T09:03:49.447Z,22.56
2022-09-12T09:06:43.842Z,22.74
2022-09-12T09:09:20.032Z,22.95
2022-09-12T09:12:01.438Z,23.16
2022-09-12T09:14:54.383Z,23.36
2022-09-12T09:17:30.312Z,23.52
2022-09-12T09:20:05.585Z,23.70
2022-09-12T09:22:45.590Z,23.89
2022-09-12T09:25:23.071Z,24.05
2022-09-12T09:27:58.851Z,24.19
2022-09-12T09:30:28.588Z,24.38
2022-09-12T09:33:00.937Z,24.56
2022-09-12T09:35:42.601Z,24.75
2022-09-12T09:38:27.004Z,24.91
2022-09-12T09:41:20.977Z,25.08
2022-09-12T09:43:49.282Z,25.24
2022-09-12T09:46:17.668Z,25.36
2022-09-12T09:48:49.406Z,25.51
2022-09-12T09:51:28.018Z,25.66
2022-09-12T09:54:02.440Z,25.80
2022-09-12T09:56:37.034Z,25.92
2022-09-12T09:59:12.879Z,26.04
2022-09-12T10:01:47.880Z,26.20
2022-09-12T10:04:22.597Z,26.34
2022-09-12T10:06:54.364Z,26.47
2022-09-12T10:09:27.747Z,26.55
2022-09-12T10:11:57.715Z,26.70
2022-09-12T10:14:36.767Z,26.74
2022-09-12T10:17:33.199Z,26.80
2022-09-12T10:20:20.431Z,26.85
2022-09-12T10:22:50.294Z,26.89
2022-09-12T10:25:21.545Z,26.96
2022-09-12T10:27:56.290Z,27.05
2022-09-12T10:30:28.282Z,27.13
2022-09-12T10:33:07.522Z,27.16
2022-09-12T10:35:47.200Z,27.18
2022-09-12T10:38:23.435Z,27.14
2022-09-12T10:41:00.444Z,27.10
2022-09-12T10:43:33.116Z,27.03
2022-09-12T10:46:22.888Z,26.90
2022-09-12T10:48:53.611Z,26.83
2022-09-12T10:51:29.858Z,26.78
2022-09-12T10:54:00.643Z,26.79
2022-09-12T10:56:32.910Z,26.84
2022-09-12T10:59:22.506Z,26.89
2022-09-12T11:01:56.114Z,27.03
2022-09-12T11:04:41.922Z,27.08
2022-09-12T11:07:37.926Z,27.14
2022-09-12T11:10:21.945Z,27.27
2022-09-12T11:13:01.826Z,27.42
2022-09-12T11:15:46.140Z,27.55
2022-09-12T11:18:34.886Z,27.69
2022-09-12T11:21:27.522Z,27.86
2022-09-12T11:24:28.738Z,28.02
2022-09-12T11:27:12.105Z,28.11
2022-09-12T11:29:51.186Z,28.16
2022-09-12T11:32:53.458Z,28.20
2022-09-12T11:35:27.425Z,28.28
2022-09-12T11:38:27.031Z,28.36
2022-09-12T11:40:58.133Z,28.46
2022-09-12T11:43:37.408Z,28.50
2022-09-12T11:46:16.780Z,28.59
2022-09-12T11:48:54.804Z,28.67
2022-09-12T11:51:28.960Z,28.73
2022-09-12T11:54:17.209Z,28.82
2022-09-12T11:56:48.850Z,28.90
2022-09-12T11:59:32.416Z,29.01
2022-09-12T12:02:03.223Z,29.13
2022-09-12T12:04:41.201Z,29.23
2022-09-12T12:07:12.409Z,29.32
2022-09-12T12:09:50.393Z,29.39
2022-09-12T12:12:25.317Z,29.47
2022-09-12T12:14:55.868Z,29.50
2022-09-12T12:17:27.045Z,29.54
2022-09-12T12:20:05.793Z,29.53
2022-09-12T12:22:37.209Z,29.47
2022-09-12T12:25:28.856Z,29.39
2022-09-12T12:28:01.798Z,29.28
2022-09-12T12:31:03.244Z,29.13
2022-09-12T12:34:04.379Z,29.00
2022-09-12T12:36:43.874Z,28.86
2022-09-12T12:40:05.910Z,28.76
2022-09-12T12:43:31.927Z,28.70
2022-09-12T12:46:10.534Z,28.70
2022-09-12T12:49:12.610Z,28.70
2022-09-12T12:52:01.485Z,28.71
2022-09-12T12:54:58.982Z,28.74
2022-09-12T12:57:34.378Z,28.77
2022-09-12T13:00:08.426Z,28.79
2022-09-12T13:02:40.047Z,28.83
2022-09-12T13:05:21.422Z,28.82
2022-09-12T13:07:57.703Z,28.83
2022-09-12T13:10:29.498Z,28.83
2022-09-12T13:13:01.796Z,28.82
2022-09-12T13:15:57.339Z,28.78
2022-09-12T13:18:29.386Z,28.79
2022-09-12T13:21:09.569Z,28.76
2022-09-12T13:23:38.132Z,28.79
2022-09-12T13:26:14.057Z,28.80
2022-09-12T13:28:42.508Z,28.82
2022-09-12T13:31:21.475Z,28.80
2022-09-12T13:33:52.519Z,28.81
2022-09-12T13:37:07.042Z,28.80
2022-09-12T13:39:49.594Z,28.78
2022-09-12T13:42:42.713Z,28.75
2022-09-12T13:45:21.265Z,28.74
2022-09-12T13:47:58.395Z,28.70
2022-09-12T13:50:29.961Z,28.67
2022-09-12T13:53:03.311Z,28.62
2022-09-12T13:55:36.327Z,28.55
2022-09-12T13:58:06.683Z,28.50
2022-09-12T14:00:37.265Z,28.44
2022-09-12T14:03:47.538Z,28.38
2022-09-12T14:06:16.364Z,28.32
2022-09-12T14:08:48.187Z,28.30
2022-09-12T14:11:27.066Z,28.27
2022-09-12T14:13:56.313Z,28.25
2022-09-12T14:16:27.381Z,28.21
2022-09-12T14:18:56.183Z,28.18
2022-09-12T14:21:37.224Z,28.18
2022-09-12T14:24:10.851Z,28.18
2022-09-12T14:26:41.227Z,28.14
2022-09-12T14:29:13.570Z,28.09
2022-09-12T14:31:43.589Z,28.05
2022-09-12T14:34:15.577Z,28.01
2022-09-12T14:36:47.816Z,27.98
2022-09-12T14:39:30.874Z,27.92
2022-09-12T14:42:07.063Z,27.88
2022-09-12T14:44:36.882Z,27.87
2022-09-12T14:47:19.355Z,27.82
2022-09-12T14:49:47.713Z,27.81
2022-09-12T14:52:27.686Z,27.75
2022-09-12T14:55:03.009Z,27.68
2022-09-12T14:57:40.118Z,27.65
2022-09-12T15:00:23.210Z,27.58
2022-09-12T15:02:53.656Z,27.54
2022-09-12T15:05:26.789Z,27.44
2022-09-12T15:07:59.026Z,27.40
2022-09-12T15:10:33.043Z,27.36
2022-09-12T15:13:20.752Z,27.26
2022-09-12T15:15:53.013Z,27.22
2022-09-12T15:18:24.511Z,27.14
2022-09-12T15:20:55.885Z,27.09
2022-09-12T15:23:35.097Z,27.06
2022-09-12T15:26:05.837Z,27.02
2022-09-12T15:28:34.928Z,26.97
2022-09-12T15:31:08.912Z,26.86
2022-09-12T15:33:37.285Z,26.82
2022-09-12T15:36:14.573Z,26.76
2022-09-12T15:38:44.657Z,26.69
2022-09-12T15:41:18.600Z,26.66
2022-09-12T15:43:47.927Z,26.62
2022-09-12T15:46:19.279Z,26.57
2022-09-12T15:48:47.714Z,26.52
2022-09-12T15:51:18.322Z,26.48
2022-09-12T15:53:48.274Z,26.42
2022-09-12T15:56:20.125Z,26.37
2022-09-12T15:58:58.692Z,26.33
2022-09-12T16:01:29.335Z,26.27
2022-09-12T16:03:58.246Z,26.22
2022-09-12T16:06:27.204Z,26.18
2022-09-12T16:08:55.456Z,26.12
2022-09-12T16:11:27.708Z,26.07
2022-09-12T16:13:56.843Z,26.02
2022-09-12T16:16:25.192Z,25.95
2022-09-12T16:18:53.556Z,25.89
2022-09-12T16:21:21.846Z,25.81
2022-09-12T16:23:50.269Z,25.73
2022-09-12T16:26:19.009Z,25.64
2022-09-12T16:28:48.958Z,25.55
2022-09-12T16:31:17.477Z,25.48
2022-09-12T16:33:45.783Z,25.40
2022-09-12T16:36:16.932Z,25.33
2022-09-12T16:38:47.222Z,25.25
2022-09-12T16:41:17.377Z,25.17
2022-09-12T16:43:46.885Z,25.11
2022-09-12T16:46:20.882Z,25.02
2022-09-12T16:48:52.821Z,24.95
2022-09-12T16:51:23.643Z,24.88
2022-09-12T16:53:52.310Z,24.80
2022-09-12T16:56:22.148Z,24.75
2022-09-12T16:58:50.763Z,24.67
2022-09-12T17:01:22.936Z,24.60
2022-09-12T17:03:55.200Z,24.55
2022-09-12T17:06:23.524Z,24.49
2022-09-12T17:08:54.005Z,24.42
2022-09-12T17:11:24.874Z,24.35
2022-09-12T17:14:11.705Z,24.28
2022-09-12T17:16:48.031Z,24.21
2022-09-12T17:19:22.608Z,24.14
2022-09-12T17:21:50.936Z,24.08
2022-09-12T17:24:19.978Z,24.01
2022-09-12T17:26:48.373Z,23.95
2022-09-12T17:29:18.073Z,23.89
2022-09-12T17:31:48.135Z,23.82
2022-09-12T17:34:17.636Z,23.78
2022-09-12T17:36:48.418Z,23.71
2022-09-12T17:39:17.107Z,23.65
2022-09-12T17:41:46.116Z,23.58
2022-09-12T17:44:16.037Z,23.51
2022-09-12T17:46:44.931Z,23.42
2022-09-12T17:49:16.688Z,23.34
2022-09-12T17:51:45.889Z,23.27
2022-09-12T17:54:16.980Z,23.23
2022-09-12T17:56:49.001Z,23.16
2022-09-12T17:59:20.013Z,23.10
2022-09-12T18:02:06.368Z,23.04
2022-09-12T18:04:36.486Z,22.98
2022-09-12T18:07:05.121Z,22.93
2022-09-12T18:09:33.466Z,22.84
2022-09-12T18:12:01.808Z,22.85
2022-09-12T18:14:30.402Z,22.76
2022-09-12T18:17:00.232Z,22.69
2022-09-12T18:19:29.359Z,22.65
2022-09-12T18:21:59.651Z,22.59
2022-09-12T18:24:28.161Z,22.53
2022-09-12T18:26:57.665Z,22.46
2022-09-12T18:29:27.915Z,22.40
2022-09-12T18:31:56.259Z,22.34
2022-09-12T18:34:24.570Z,22.29
2022-09-12T18:36:54.857Z,22.23
2022-09-12T18:39:27.664Z,22.15
2022-09-12T18:41:56.935Z,22.10
2022-09-12T18:44:25.280Z,22.04
2022-09-12T18:46:53.957Z,21.98
2022-09-12T18:49:22.357Z,21.94
2022-09-12T18:51:50.695Z,21.87
2022-09-12T18:54:19.415Z,21.82
2022-09-12T18:56:49.282Z,21.76
2022-09-12T18:59:17.809Z,21.70
2022-09-12T19:01:46.334Z,21.64
2022-09-12T19:04:16.540Z,21.55
2022-09-12T19:06:46.934Z,21.49
2022-09-12T19:09:18.075Z,21.43
2022-09-12T19:11:50.159Z,21.37
2022-09-12T19:14:22.654Z,21.32
2022-09-12T19:16:52.158Z,21.25
2022-09-12T19:19:21.271Z,21.19
2022-09-12T19:21:49.678Z,21.16
2022-09-12T19:24:18.411Z,21.11
2022-09-12T19:26:49.200Z,21.03
2022-09-12T19:29:17.880Z,20.98
2022-09-12T19:31:47.058Z,20.92
2022-09-12T19:34:15.823Z,20.85
2022-09-12T19:36:46.336Z,20.80
2022-09-12T19:39:16.442Z,20.74
2022-09-12T19:41:45.468Z,20.69
2022-09-12T19:44:15.730Z,20.65
2022-09-12T19:46:44.191Z,20.62
2022-09-12T19:49:13.760Z,20.59
2022-09-12T19:51:42.527Z,20.52
2022-09-12T19:54:11.114Z,20.47
2022-09-12T19:56:39.454Z,20.43
2022-09-12T19:59:08.772Z,20.37
2022-09-12T20:01:38.655Z,20.33
2022-09-12T20:04:07.720Z,20.27
2022-09-12T20:06:36.870Z,20.21
2022-09-12T20:09:05.474Z,20.15
2022-09-12T20:11:34.005Z,20.11
2022-09-12T20:14:02.512Z,20.02
2022-09-12T20:16:31.702Z,19.99
2022-09-12T20:19:06.013Z,19.92
2022-09-12T20:21:36.116Z,19.86
2022-09-12T20:24:07.045Z,19.81
2022-09-12T20:26:35.954Z,19.78
2022-09-12T20:29:05.398Z,19.71
2022-09-12T20:31:34.630Z,19.66
2022-09-12T20:34:04.548Z,19.61
2022-09-12T20:36:33.103Z,19.55
2022-09-12T20:39:03.037Z,19.50
2022-09-12T20:41:35.305Z,19.46
2022-09-12T20:44:04.085Z,19.40
2022-09-12T20:46:33.138Z,19.36
2022-09-12T20:49:02.794Z,19.30
2022-09-12T20:51:31.364Z,19.27
2022-09-12T20:54:01.683Z,19.23
2022-09-12T20:56:31.740Z,19.19
2022-09-12T20:59:01.045Z,19.15
2022-09-12T21:01:31.307Z,19.09
2022-09-12T21:04:01.476Z,19.03
2022-09-12T21:06:32.434Z,18.97
2022-09-12T21:09:00.905Z,18.92
2022-09-12T21:11:29.917Z,18.87
2022-09-12T21:13:58.496Z,18.82
2022-09-12T21:16:26.925Z,18.75
2022-09-12T21:18:57.182Z,18.71
2022-09-12T21:21:25.953Z,18.66
2022-09-12T21:23:59.700Z,18.60
2022-09-12T21:26:28.370Z,18.58
2022-09-12T21:28:56.809Z,18.54
2022-09-12T21:31:26.474Z,18.51
2022-09-12T21:33:54.800Z,18.48
2022-09-12T21:36:23.153Z,18.45
2022-09-12T21:38:51.424Z,18.40
2022-09-12T21:41:21.062Z,18.35
2022-09-12T21:43:49.880Z,18.30
2022-09-12T21:46:18.625Z,18.25
2022-09-12T21:48:47.162Z,18.22
2022-09-12T21:51:15.434Z,18.19
2022-09-12T21:53:43.714Z,18.13
2022-09-12T21:56:12.051Z,18.11
2022-09-12T21:58:41.723Z,18.07
2022-09-12T22:01:12.966Z,18.02
2022-09-12T22:03:43.071Z,17.98
2022-09-12T22:06:14.802Z,17.95
2022-09-12T22:08:43.366Z,17.94
2022-09-12T22:11:11.678Z,17.90
2022-09-12T22:13:43.822Z,17.84
2022-09-12T22:16:12.780Z,17.81
2022-09-12T22:18:41.331Z,17.76
2022-09-12T22:21:13.387Z,17.70
2022-09-12T22:23:59.437Z,17.65
2022-09-12T22:26:28.188Z,17.60
2022-09-12T22:28:57.888Z,17.58
2022-09-12T22:31:27.016Z,17.54
2022-09-12T22:33:57.111Z,17.49
2022-09-12T22:36:30.461Z,17.46
2022-09-12T22:38:59.724Z,17.43
2022-09-12T22:41:28.498Z,17.40
2022-09-12T22:43:58.507Z,17.37
2022-09-12T22:46:27.277Z,17.37
2022-09-12T22:48:56.051Z,17.34
2022-09-12T22:51:24.403Z,17.31
2022-09-12T22:53:52.796Z,17.29
2022-09-12T22:56:21.241Z,17.27
2022-09-12T22:58:49.590Z,17.23
2022-09-12T23:01:19.439Z,17.20
2022-09-12T23:03:47.929Z,17.19
2022-09-12T23:06:16.457Z,17.16
2022-09-12T23:08:45.030Z,17.13
2022-09-12T23:11:15.730Z,17.12
2022-09-12T23:13:46.188Z,17.10
2022-09-12T23:16:20.132Z,17.07
2022-09-12T23:18:49.439Z,17.07
2022-09-12T23:21:20.513Z,17.05
2022-09-12T23:23:49.029Z,17.02
2022-09-12T23:26:20.037Z,17.00
2022-09-12T23:28:53.917Z,16.96
2022-09-12T23:31:25.766Z,16.93
2022-09-12T23:33:54.797Z,16.90
2022-09-12T23:36:23.913Z,16.90
2022-09-12T23:38:52.552Z,16.86
2022-09-12T23:41:20.897Z,16.81
2022-09-12T23:43:49.359Z,16.83
2022-09-12T23:46:19.173Z,16.80
2022-09-12T23:48:49.462Z,16.77
2022-09-12T23:51:18.097Z,16.75
2022-09-12T23:53:46.478Z,16.73
2022-09-12T23:56:14.826Z,16.71
2022-09-12T23:58:43.057Z,16.67
